Terminal Aerodrome Forecast
Issued by NWS

Home | Current Version | Previous Version | Text Only | Print | Product List | Glossary Off
Versions: 1 2 3 4 5 6 7 8 9 10 11 12 13 14 15 16

000
FTUS43 KIWX 151720
TAFSBN
TAF
KSBN 151720Z 1518/1618 23005KT 1/4SM -RA FG VV002
     FM160300 33007KT 2SM -RA BR OVC006
     FM160600 32009KT P6SM OVC020
     FM161200 33012G21KT P6SM OVC020=

USA.gov is the U.S. government's official web portal to all federal, state and local government web resources and services.